sensor_id;sensor_type;location;lat;lon;timestamp;temperature;humidity
67529;DHT22;54366;51.980;5.856;2023-11-19T00:01:32;13.40;91.70
67529;DHT22;54366;51.980;5.856;2023-11-19T00:03:58;13.40;91.70
67529;DHT22;54366;51.980;5.856;2023-11-19T00:06:25;13.40;91.70
67529;DHT22;54366;51.980;5.856;2023-11-19T00:08:51;13.40;91.70
67529;DHT22;54366;51.980;5.856;2023-11-19T00:11:17;13.40;91.80
67529;DHT22;54366;51.980;5.856;2023-11-19T00:13:44;13.40;91.80
67529;DHT22;54366;51.980;5.856;2023-11-19T00:16:10;13.50;91.80
67529;DHT22;54366;51.980;5.856;2023-11-19T00:18:36;13.50;91.70
67529;DHT22;54366;51.980;5.856;2023-11-19T00:21:03;13.50;91.70
67529;DHT22;54366;51.980;5.856;2023-11-19T00:23:29;13.60;91.80
67529;DHT22;54366;51.980;5.856;2023-11-19T00:25:55;13.50;91.80
67529;DHT22;54366;51.980;5.856;2023-11-19T00:28:22;13.50;91.70
67529;DHT22;54366;51.980;5.856;2023-11-19T00:30:48;13.60;91.70
67529;DHT22;54366;51.980;5.856;2023-11-19T00:33:15;13.60;91.70
67529;DHT22;54366;51.980;5.856;2023-11-19T00:35:41;13.60;91.70
67529;DHT22;54366;51.980;5.856;2023-11-19T00:38:07;13.60;91.70
67529;DHT22;54366;51.980;5.856;2023-11-19T00:40:34;13.60;91.70
67529;DHT22;54366;51.980;5.856;2023-11-19T00:43:00;13.60;91.70
67529;DHT22;54366;51.980;5.856;2023-11-19T00:45:26;13.60;91.70
67529;DHT22;54366;51.980;5.856;2023-11-19T00:47:53;13.60;91.70
67529;DHT22;54366;51.980;5.856;2023-11-19T00:50:19;13.60;91.70
67529;DHT22;54366;51.980;5.856;2023-11-19T00:52:46;13.70;91.80
67529;DHT22;54366;51.980;5.856;2023-11-19T00:55:13;13.70;91.70
67529;DHT22;54366;51.980;5.856;2023-11-19T00:57:40;13.70;91.70
67529;DHT22;54366;51.980;5.856;2023-11-19T01:00:07;13.70;91.70
67529;DHT22;54366;51.980;5.856;2023-11-19T01:02:41;13.70;91.70
67529;DHT22;54366;51.980;5.856;2023-11-19T01:05:08;13.70;91.70
67529;DHT22;54366;51.980;5.856;2023-11-19T01:07:35;13.70;91.70
67529;DHT22;54366;51.980;5.856;2023-11-19T01:10:02;13.70;91.70
67529;DHT22;54366;51.980;5.856;2023-11-19T01:12:29;13.70;91.70
67529;DHT22;54366;51.980;5.856;2023-11-19T01:14:57;13.70;91.60
67529;DHT22;54366;51.980;5.856;2023-11-19T01:17:24;13.70;91.70
67529;DHT22;54366;51.980;5.856;2023-11-19T01:19:50;13.80;91.70
67529;DHT22;54366;51.980;5.856;2023-11-19T01:22:16;13.70;91.70
67529;DHT22;54366;51.980;5.856;2023-11-19T01:24:43;13.80;91.70
67529;DHT22;54366;51.980;5.856;2023-11-19T01:27:09;13.80;91.70
67529;DHT22;54366;51.980;5.856;2023-11-19T01:29:35;13.70;91.70
67529;DHT22;54366;51.980;5.856;2023-11-19T01:32:02;13.80;91.70
67529;DHT22;54366;51.980;5.856;2023-11-19T01:34:28;13.80;91.70
67529;DHT22;54366;51.980;5.856;2023-11-19T01:36:54;13.80;92.00
67529;DHT22;54366;51.980;5.856;2023-11-19T01:39:21;13.80;91.70
67529;DHT22;54366;51.980;5.856;2023-11-19T01:41:47;13.80;91.70
67529;DHT22;54366;51.980;5.856;2023-11-19T01:44:13;13.80;91.90
67529;DHT22;54366;51.980;5.856;2023-11-19T01:46:45;13.80;91.70
67529;DHT22;54366;51.980;5.856;2023-11-19T01:49:15;13.80;91.70
67529;DHT22;54366;51.980;5.856;2023-11-19T01:51:42;13.80;91.60
67529;DHT22;54366;51.980;5.856;2023-11-19T01:54:08;13.80;91.70
67529;DHT22;54366;51.980;5.856;2023-11-19T01:56:36;13.80;91.60
67529;DHT22;54366;51.980;5.856;2023-11-19T01:59:03;13.80;91.70
67529;DHT22;54366;51.980;5.856;2023-11-19T02:01:30;13.80;91.60
67529;DHT22;54366;51.980;5.856;2023-11-19T02:03:58;13.80;91.60
67529;DHT22;54366;51.980;5.856;2023-11-19T02:06:26;13.80;91.60
67529;DHT22;54366;51.980;5.856;2023-11-19T02:08:52;13.80;91.60
67529;DHT22;54366;51.980;5.856;2023-11-19T02:11:19;13.80;91.60
67529;DHT22;54366;51.980;5.856;2023-11-19T02:13:45;13.80;91.50
67529;DHT22;54366;51.980;5.856;2023-11-19T02:16:11;13.80;91.50
67529;DHT22;54366;51.980;5.856;2023-11-19T02:18:38;13.80;91.50
67529;DHT22;54366;51.980;5.856;2023-11-19T02:21:05;13.80;91.50
67529;DHT22;54366;51.980;5.856;2023-11-19T02:23:31;13.80;91.50
67529;DHT22;54366;51.980;5.856;2023-11-19T02:26:28;13.80;91.50
67529;DHT22;54366;51.980;5.856;2023-11-19T02:28:57;13.80;91.50
67529;DHT22;54366;51.980;5.856;2023-11-19T02:31:23;13.80;91.40
67529;DHT22;54366;51.980;5.856;2023-11-19T02:33:49;13.80;91.50
67529;DHT22;54366;51.980;5.856;2023-11-19T02:36:16;13.80;91.40
67529;DHT22;54366;51.980;5.856;2023-11-19T02:38:42;13.70;91.40
67529;DHT22;54366;51.980;5.856;2023-11-19T02:41:09;13.70;91.40
67529;DHT22;54366;51.980;5.856;2023-11-19T02:43:37;13.70;91.40
67529;DHT22;54366;51.980;5.856;2023-11-19T02:46:04;13.70;91.40
67529;DHT22;54366;51.980;5.856;2023-11-19T02:48:35;13.80;91.40
67529;DHT22;54366;51.980;5.856;2023-11-19T02:51:02;13.80;91.40
67529;DHT22;54366;51.980;5.856;2023-11-19T02:53:32;13.70;91.30
67529;DHT22;54366;51.980;5.856;2023-11-19T02:55:58;13.70;91.30
67529;DHT22;54366;51.980;5.856;2023-11-19T02:58:32;13.70;91.30
67529;DHT22;54366;51.980;5.856;2023-11-19T03:00:59;13.70;91.50
67529;DHT22;54366;51.980;5.856;2023-11-19T03:03:35;13.70;91.20
67529;DHT22;54366;51.980;5.856;2023-11-19T03:06:07;13.60;91.20
67529;DHT22;54366;51.980;5.856;2023-11-19T03:08:35;13.60;91.20
67529;DHT22;54366;51.980;5.856;2023-11-19T03:11:02;13.60;91.20
67529;DHT22;54366;51.980;5.856;2023-11-19T03:13:29;13.60;91.20
67529;DHT22;54366;51.980;5.856;2023-11-19T03:15:55;13.50;91.10
67529;DHT22;54366;51.980;5.856;2023-11-19T03:18:21;13.50;91.00
67529;DHT22;54366;51.980;5.856;2023-11-19T03:20:48;13.50;91.00
67529;DHT22;54366;51.980;5.856;2023-11-19T03:23:15;13.40;91.00
67529;DHT22;54366;51.980;5.856;2023-11-19T03:25:42;13.40;91.00
67529;DHT22;54366;51.980;5.856;2023-11-19T03:28:09;13.40;91.00
67529;DHT22;54366;51.980;5.856;2023-11-19T03:30:37;13.50;91.10
67529;DHT22;54366;51.980;5.856;2023-11-19T03:33:04;13.40;91.10
67529;DHT22;54366;51.980;5.856;2023-11-19T03:35:30;13.40;91.00
67529;DHT22;54366;51.980;5.856;2023-11-19T03:37:57;13.40;91.00
67529;DHT22;54366;51.980;5.856;2023-11-19T03:40:24;13.40;91.00
67529;DHT22;54366;51.980;5.856;2023-11-19T03:42:51;13.30;90.90
67529;DHT22;54366;51.980;5.856;2023-11-19T03:45:17;13.30;90.90
67529;DHT22;54366;51.980;5.856;2023-11-19T03:47:44;13.30;90.80
67529;DHT22;54366;51.980;5.856;2023-11-19T03:50:10;13.30;90.80
67529;DHT22;54366;51.980;5.856;2023-11-19T03:52:36;13.20;90.80
67529;DHT22;54366;51.980;5.856;2023-11-19T03:55:03;13.20;90.90
67529;DHT22;54366;51.980;5.856;2023-11-19T03:57:31;13.20;90.80
67529;DHT22;54366;51.980;5.856;2023-11-19T03:59:57;13.10;90.90
67529;DHT22;54366;51.980;5.856;2023-11-19T04:02:24;13.10;90.90
67529;DHT22;54366;51.980;5.856;2023-11-19T04:04:54;13.10;90.90
67529;DHT22;54366;51.980;5.856;2023-11-19T04:07:21;13.00;90.90
67529;DHT22;54366;51.980;5.856;2023-11-19T04:09:47;13.00;90.90
67529;DHT22;54366;51.980;5.856;2023-11-19T04:12:14;12.90;90.80
67529;DHT22;54366;51.980;5.856;2023-11-19T04:14:40;12.90;90.90
67529;DHT22;54366;51.980;5.856;2023-11-19T04:17:06;12.90;90.90
67529;DHT22;54366;51.980;5.856;2023-11-19T04:19:33;12.80;90.90
67529;DHT22;54366;51.980;5.856;2023-11-19T04:21:59;12.80;90.90
67529;DHT22;54366;51.980;5.856;2023-11-19T04:24:25;12.80;90.90
67529;DHT22;54366;51.980;5.856;2023-11-19T04:26:51;12.80;90.80
67529;DHT22;54366;51.980;5.856;2023-11-19T04:29:18;12.70;90.80
67529;DHT22;54366;51.980;5.856;2023-11-19T04:31:45;12.70;90.70
67529;DHT22;54366;51.980;5.856;2023-11-19T04:34:12;12.70;90.80
67529;DHT22;54366;51.980;5.856;2023-11-19T04:36:38;12.70;90.70
67529;DHT22;54366;51.980;5.856;2023-11-19T04:39:05;12.60;90.60
67529;DHT22;54366;51.980;5.856;2023-11-19T04:41:51;12.60;90.60
67529;DHT22;54366;51.980;5.856;2023-11-19T04:44:19;12.60;90.60
67529;DHT22;54366;51.980;5.856;2023-11-19T04:46:46;12.60;90.60
67529;DHT22;54366;51.980;5.856;2023-11-19T04:49:13;12.60;90.50
67529;DHT22;54366;51.980;5.856;2023-11-19T04:51:41;12.60;90.50
67529;DHT22;54366;51.980;5.856;2023-11-19T04:54:08;12.50;90.50
67529;DHT22;54366;51.980;5.856;2023-11-19T04:56:36;12.50;90.50
67529;DHT22;54366;51.980;5.856;2023-11-19T04:59:04;12.50;90.50
67529;DHT22;54366;51.980;5.856;2023-11-19T05:01:35;12.50;90.60
67529;DHT22;54366;51.980;5.856;2023-11-19T05:04:02;12.40;90.50
67529;DHT22;54366;51.980;5.856;2023-11-19T05:06:29;12.40;90.50
67529;DHT22;54366;51.980;5.856;2023-11-19T05:08:56;12.40;90.40
67529;DHT22;54366;51.980;5.856;2023-11-19T05:11:22;12.40;90.50
67529;DHT22;54366;51.980;5.856;2023-11-19T05:13:49;12.40;90.40
67529;DHT22;54366;51.980;5.856;2023-11-19T05:16:16;12.40;90.50
67529;DHT22;54366;51.980;5.856;2023-11-19T05:18:43;12.40;90.40
67529;DHT22;54366;51.980;5.856;2023-11-19T05:21:10;12.40;90.40
67529;DHT22;54366;51.980;5.856;2023-11-19T05:23:36;12.40;90.50
67529;DHT22;54366;51.980;5.856;2023-11-19T05:26:03;12.40;90.50
67529;DHT22;54366;51.980;5.856;2023-11-19T05:28:30;12.40;90.40
67529;DHT22;54366;51.980;5.856;2023-11-19T05:30:56;12.40;90.50
67529;DHT22;54366;51.980;5.856;2023-11-19T05:33:22;12.40;90.50
67529;DHT22;54366;51.980;5.856;2023-11-19T05:35:49;12.40;90.50
67529;DHT22;54366;51.980;5.856;2023-11-19T05:38:15;12.40;90.50
67529;DHT22;54366;51.980;5.856;2023-11-19T05:40:42;12.40;90.40
67529;DHT22;54366;51.980;5.856;2023-11-19T05:43:08;12.50;90.40
67529;DHT22;54366;51.980;5.856;2023-11-19T05:45:34;12.40;90.20
67529;DHT22;54366;51.980;5.856;2023-11-19T05:48:01;12.50;90.30
67529;DHT22;54366;51.980;5.856;2023-11-19T05:50:30;12.50;90.20
67529;DHT22;54366;51.980;5.856;2023-11-19T05:52:56;12.50;90.20
67529;DHT22;54366;51.980;5.856;2023-11-19T05:55:22;12.50;90.10
67529;DHT22;54366;51.980;5.856;2023-11-19T05:57:49;12.50;90.10
67529;DHT22;54366;51.980;5.856;2023-11-19T06:00:17;12.50;90.10
67529;DHT22;54366;51.980;5.856;2023-11-19T06:02:44;12.50;90.00
67529;DHT22;54366;51.980;5.856;2023-11-19T06:05:10;12.50;90.00
67529;DHT22;54366;51.980;5.856;2023-11-19T06:07:37;12.40;90.00
67529;DHT22;54366;51.980;5.856;2023-11-19T06:10:05;12.50;90.00
67529;DHT22;54366;51.980;5.856;2023-11-19T06:12:33;12.50;90.00
67529;DHT22;54366;51.980;5.856;2023-11-19T06:15:05;12.50;90.00
67529;DHT22;54366;51.980;5.856;2023-11-19T06:17:32;12.50;89.90
67529;DHT22;54366;51.980;5.856;2023-11-19T06:19:58;12.40;89.80
67529;DHT22;54366;51.980;5.856;2023-11-19T06:22:24;12.40;89.80
67529;DHT22;54366;51.980;5.856;2023-11-19T06:24:51;12.50;90.10
67529;DHT22;54366;51.980;5.856;2023-11-19T06:27:17;12.50;89.70
67529;DHT22;54366;51.980;5.856;2023-11-19T06:29:43;12.40;89.60
67529;DHT22;54366;51.980;5.856;2023-11-19T06:32:10;12.40;89.50
67529;DHT22;54366;51.980;5.856;2023-11-19T06:34:36;12.40;89.50
67529;DHT22;54366;51.980;5.856;2023-11-19T06:37:02;12.30;89.40
67529;DHT22;54366;51.980;5.856;2023-11-19T06:39:30;12.40;89.60
67529;DHT22;54366;51.980;5.856;2023-11-19T06:41:56;12.30;89.60
67529;DHT22;54366;51.980;5.856;2023-11-19T06:44:23;12.30;89.30
67529;DHT22;54366;51.980;5.856;2023-11-19T06:46:50;12.30;89.30
67529;DHT22;54366;51.980;5.856;2023-11-19T06:49:17;12.30;89.40
67529;DHT22;54366;51.980;5.856;2023-11-19T06:51:44;12.30;89.80
67529;DHT22;54366;51.980;5.856;2023-11-19T06:54:10;12.30;89.40
67529;DHT22;54366;51.980;5.856;2023-11-19T06:56:36;12.30;89.40
67529;DHT22;54366;51.980;5.856;2023-11-19T06:59:03;12.30;89.60
67529;DHT22;54366;51.980;5.856;2023-11-19T07:01:34;12.30;89.40
67529;DHT22;54366;51.980;5.856;2023-11-19T07:04:02;12.30;89.40
67529;DHT22;54366;51.980;5.856;2023-11-19T07:06:35;12.30;89.40
67529;DHT22;54366;51.980;5.856;2023-11-19T07:09:02;12.30;89.50
67529;DHT22;54366;51.980;5.856;2023-11-19T07:11:39;12.30;89.40
67529;DHT22;54366;51.980;5.856;2023-11-19T07:14:08;12.30;89.50
67529;DHT22;54366;51.980;5.856;2023-11-19T07:16:35;12.30;89.40
67529;DHT22;54366;51.980;5.856;2023-11-19T07:19:05;12.30;89.20
67529;DHT22;54366;51.980;5.856;2023-11-19T07:21:32;12.30;89.20
67529;DHT22;54366;51.980;5.856;2023-11-19T07:23:59;12.30;89.10
67529;DHT22;54366;51.980;5.856;2023-11-19T07:26:26;12.30;89.10
67529;DHT22;54366;51.980;5.856;2023-11-19T07:28:53;12.40;89.20
67529;DHT22;54366;51.980;5.856;2023-11-19T07:31:19;12.40;89.10
67529;DHT22;54366;51.980;5.856;2023-11-19T07:33:46;12.40;89.60
67529;DHT22;54366;51.980;5.856;2023-11-19T07:36:14;12.40;89.00
67529;DHT22;54366;51.980;5.856;2023-11-19T07:38:40;12.40;88.70
67529;DHT22;54366;51.980;5.856;2023-11-19T07:41:06;12.40;88.70
67529;DHT22;54366;51.980;5.856;2023-11-19T07:43:35;12.40;88.70
67529;DHT22;54366;51.980;5.856;2023-11-19T07:46:01;12.40;88.70
67529;DHT22;54366;51.980;5.856;2023-11-19T07:48:29;12.40;88.70
67529;DHT22;54366;51.980;5.856;2023-11-19T07:50:56;12.40;88.60
67529;DHT22;54366;51.980;5.856;2023-11-19T07:53:23;12.40;88.70
67529;DHT22;54366;51.980;5.856;2023-11-19T07:55:49;12.40;88.70
67529;DHT22;54366;51.980;5.856;2023-11-19T07:58:15;12.50;88.80
67529;DHT22;54366;51.980;5.856;2023-11-19T08:00:42;12.50;88.70
67529;DHT22;54366;51.980;5.856;2023-11-19T08:03:08;12.50;88.60
67529;DHT22;54366;51.980;5.856;2023-11-19T08:05:34;12.60;88.60
67529;DHT22;54366;51.980;5.856;2023-11-19T08:08:01;12.50;88.50
67529;DHT22;54366;51.980;5.856;2023-11-19T08:10:27;12.60;88.10
67529;DHT22;54366;51.980;5.856;2023-11-19T08:12:54;12.60;88.30
67529;DHT22;54366;51.980;5.856;2023-11-19T08:15:21;12.70;88.20
67529;DHT22;54366;51.980;5.856;2023-11-19T08:17:47;12.70;88.20
67529;DHT22;54366;51.980;5.856;2023-11-19T08:20:13;12.70;88.10
67529;DHT22;54366;51.980;5.856;2023-11-19T08:22:40;12.70;88.00
67529;DHT22;54366;51.980;5.856;2023-11-19T08:25:07;12.70;87.90
67529;DHT22;54366;51.980;5.856;2023-11-19T08:27:34;12.80;88.00
67529;DHT22;54366;51.980;5.856;2023-11-19T08:30:00;12.80;87.70
67529;DHT22;54366;51.980;5.856;2023-11-19T08:32:27;12.80;87.90
67529;DHT22;54366;51.980;5.856;2023-11-19T08:34:54;12.90;87.80
67529;DHT22;54366;51.980;5.856;2023-11-19T08:37:20;12.90;87.90
67529;DHT22;54366;51.980;5.856;2023-11-19T08:39:48;12.90;87.50
67529;DHT22;54366;51.980;5.856;2023-11-19T08:42:15;12.90;87.20
67529;DHT22;54366;51.980;5.856;2023-11-19T08:44:42;12.90;87.00
67529;DHT22;54366;51.980;5.856;2023-11-19T08:47:11;12.90;86.90
67529;DHT22;54366;51.980;5.856;2023-11-19T08:49:37;13.00;86.90
67529;DHT22;54366;51.980;5.856;2023-11-19T08:52:03;13.00;87.00
67529;DHT22;54366;51.980;5.856;2023-11-19T08:54:30;13.00;86.70
67529;DHT22;54366;51.980;5.856;2023-11-19T08:56:59;13.00;86.50
67529;DHT22;54366;51.980;5.856;2023-11-19T08:59:26;13.00;87.40
67529;DHT22;54366;51.980;5.856;2023-11-19T09:01:52;13.10;86.80
67529;DHT22;54366;51.980;5.856;2023-11-19T09:04:19;13.10;86.60
67529;DHT22;54366;51.980;5.856;2023-11-19T09:06:48;13.10;86.70
67529;DHT22;54366;51.980;5.856;2023-11-19T09:09:15;13.20;86.70
67529;DHT22;54366;51.980;5.856;2023-11-19T09:11:41;13.20;86.70
67529;DHT22;54366;51.980;5.856;2023-11-19T09:14:08;13.20;86.40
67529;DHT22;54366;51.980;5.856;2023-11-19T09:16:34;13.20;86.40
67529;DHT22;54366;51.980;5.856;2023-11-19T09:19:01;13.20;85.90
67529;DHT22;54366;51.980;5.856;2023-11-19T09:21:28;13.20;85.70
67529;DHT22;54366;51.980;5.856;2023-11-19T09:23:55;13.30;85.60
67529;DHT22;54366;51.980;5.856;2023-11-19T09:26:22;13.30;85.40
67529;DHT22;54366;51.980;5.856;2023-11-19T09:28:48;13.30;85.30
67529;DHT22;54366;51.980;5.856;2023-11-19T09:31:18;13.30;85.30
67529;DHT22;54366;51.980;5.856;2023-11-19T09:33:44;13.40;85.30
67529;DHT22;54366;51.980;5.856;2023-11-19T09:36:14;13.40;85.00
67529;DHT22;54366;51.980;5.856;2023-11-19T09:38:43;13.40;84.60
67529;DHT22;54366;51.980;5.856;2023-11-19T09:41:10;13.40;84.50
67529;DHT22;54366;51.980;5.856;2023-11-19T09:43:39;13.50;84.60
67529;DHT22;54366;51.980;5.856;2023-11-19T09:46:07;13.50;84.40
67529;DHT22;54366;51.980;5.856;2023-11-19T09:48:37;13.50;84.40
67529;DHT22;54366;51.980;5.856;2023-11-19T09:51:10;13.50;84.40
67529;DHT22;54366;51.980;5.856;2023-11-19T09:53:37;13.50;84.60
67529;DHT22;54366;51.980;5.856;2023-11-19T09:56:05;13.50;85.00
67529;DHT22;54366;51.980;5.856;2023-11-19T09:58:32;13.50;84.90
67529;DHT22;54366;51.980;5.856;2023-11-19T10:00:59;13.60;84.50
67529;DHT22;54366;51.980;5.856;2023-11-19T10:03:34;13.60;84.30
67529;DHT22;54366;51.980;5.856;2023-11-19T10:06:07;13.70;84.50
67529;DHT22;54366;51.980;5.856;2023-11-19T10:08:37;13.70;84.40
67529;DHT22;54366;51.980;5.856;2023-11-19T10:11:04;13.70;84.40
67529;DHT22;54366;51.980;5.856;2023-11-19T10:13:30;13.70;84.50
67529;DHT22;54366;51.980;5.856;2023-11-19T10:15:57;13.70;83.50
67529;DHT22;54366;51.980;5.856;2023-11-19T10:18:26;13.70;83.50
67529;DHT22;54366;51.980;5.856;2023-11-19T10:20:53;13.70;83.60
67529;DHT22;54366;51.980;5.856;2023-11-19T10:23:21;13.70;83.50
67529;DHT22;54366;51.980;5.856;2023-11-19T10:25:47;13.80;82.90
67529;DHT22;54366;51.980;5.856;2023-11-19T10:28:15;13.70;82.80
67529;DHT22;54366;51.980;5.856;2023-11-19T10:30:42;13.70;83.10
67529;DHT22;54366;51.980;5.856;2023-11-19T10:33:10;13.70;82.30
67529;DHT22;54366;51.980;5.856;2023-11-19T10:35:52;13.80;82.30
67529;DHT22;54366;51.980;5.856;2023-11-19T10:38:26;13.80;82.40
67529;DHT22;54366;51.980;5.856;2023-11-19T10:40:53;13.80;82.60
67529;DHT22;54366;51.980;5.856;2023-11-19T10:43:21;13.80;82.40
67529;DHT22;54366;51.980;5.856;2023-11-19T10:45:51;13.80;82.60
67529;DHT22;54366;51.980;5.856;2023-11-19T10:48:18;13.80;83.10
67529;DHT22;54366;51.980;5.856;2023-11-19T10:50:46;13.90;82.70
67529;DHT22;54366;51.980;5.856;2023-11-19T10:53:12;14.00;82.40
67529;DHT22;54366;51.980;5.856;2023-11-19T10:55:46;14.00;81.70
67529;DHT22;54366;51.980;5.856;2023-11-19T10:58:15;14.10;82.00
67529;DHT22;54366;51.980;5.856;2023-11-19T11:00:52;14.20;81.80
67529;DHT22;54366;51.980;5.856;2023-11-19T11:03:20;14.30;81.80
67529;DHT22;54366;51.980;5.856;2023-11-19T11:05:47;14.40;80.90
67529;DHT22;54366;51.980;5.856;2023-11-19T11:08:14;14.40;80.10
67529;DHT22;54366;51.980;5.856;2023-11-19T11:10:45;14.40;80.10
67529;DHT22;54366;51.980;5.856;2023-11-19T11:13:13;14.40;79.60
67529;DHT22;54366;51.980;5.856;2023-11-19T11:15:40;14.50;79.80
67529;DHT22;54366;51.980;5.856;2023-11-19T11:18:09;14.50;79.60
67529;DHT22;54366;51.980;5.856;2023-11-19T11:20:35;14.60;79.20
67529;DHT22;54366;51.980;5.856;2023-11-19T11:28:08;14.70;78.50
67529;DHT22;54366;51.980;5.856;2023-11-19T11:30:09;14.70;77.80
67529;DHT22;54366;51.980;5.856;2023-11-19T11:33:13;14.60;77.70
67529;DHT22;54366;51.980;5.856;2023-11-19T11:35:55;14.70;77.90
67529;DHT22;54366;51.980;5.856;2023-11-19T11:38:24;14.60;77.80
67529;DHT22;54366;51.980;5.856;2023-11-19T11:41:19;14.60;77.90
67529;DHT22;54366;51.980;5.856;2023-11-19T11:43:49;14.60;78.20
67529;DHT22;54366;51.980;5.856;2023-11-19T11:46:55;14.60;77.70
67529;DHT22;54366;51.980;5.856;2023-11-19T11:49:28;14.50;78.10
67529;DHT22;54366;51.980;5.856;2023-11-19T11:51:59;14.50;78.70
67529;DHT22;54366;51.980;5.856;2023-11-19T11:54:26;14.60;78.50
67529;DHT22;54366;51.980;5.856;2023-11-19T11:57:06;14.60;78.50
67529;DHT22;54366;51.980;5.856;2023-11-19T12:00:02;14.60;78.40
67529;DHT22;54366;51.980;5.856;2023-11-19T12:02:31;14.60;77.80
67529;DHT22;54366;51.980;5.856;2023-11-19T12:04:57;14.50;78.10
67529;DHT22;54366;51.980;5.856;2023-11-19T12:07:24;14.50;77.80
67529;DHT22;54366;51.980;5.856;2023-11-19T12:09:54;14.50;78.20
67529;DHT22;54366;51.980;5.856;2023-11-19T12:12:31;14.50;78.80
67529;DHT22;54366;51.980;5.856;2023-11-19T12:15:09;14.70;78.70
67529;DHT22;54366;51.980;5.856;2023-11-19T12:17:46;14.80;78.50
67529;DHT22;54366;51.980;5.856;2023-11-19T12:20:16;14.80;78.40
67529;DHT22;54366;51.980;5.856;2023-11-19T12:22:44;14.80;77.50
67529;DHT22;54366;51.980;5.856;2023-11-19T12:25:11;14.80;77.70
67529;DHT22;54366;51.980;5.856;2023-11-19T12:27:47;14.80;77.10
67529;DHT22;54366;51.980;5.856;2023-11-19T12:30:24;14.90;77.30
67529;DHT22;54366;51.980;5.856;2023-11-19T12:32:51;14.90;77.20
67529;DHT22;54366;51.980;5.856;2023-11-19T12:35:19;15.00;75.80
67529;DHT22;54366;51.980;5.856;2023-11-19T12:37:47;15.00;76.50
67529;DHT22;54366;51.980;5.856;2023-11-19T12:40:18;15.10;76.50
67529;DHT22;54366;51.980;5.856;2023-11-19T12:42:48;15.10;75.40
67529;DHT22;54366;51.980;5.856;2023-11-19T12:45:16;15.10;75.60
67529;DHT22;54366;51.980;5.856;2023-11-19T12:47:46;15.10;75.80
67529;DHT22;54366;51.980;5.856;2023-11-19T12:50:16;15.10;75.30
67529;DHT22;54366;51.980;5.856;2023-11-19T12:52:56;15.10;75.30
67529;DHT22;54366;51.980;5.856;2023-11-19T12:55:29;15.20;75.00
67529;DHT22;54366;51.980;5.856;2023-11-19T12:57:56;15.20;75.00
67529;DHT22;54366;51.980;5.856;2023-11-19T13:00:26;15.10;74.80
67529;DHT22;54366;51.980;5.856;2023-11-19T13:02:56;15.20;74.90
67529;DHT22;54366;51.980;5.856;2023-11-19T13:05:27;15.10;75.20
67529;DHT22;54366;51.980;5.856;2023-11-19T13:08:05;15.20;75.40
67529;DHT22;54366;51.980;5.856;2023-11-19T13:10:33;15.20;74.90
67529;DHT22;54366;51.980;5.856;2023-11-19T13:13:09;15.20;75.20
67529;DHT22;54366;51.980;5.856;2023-11-19T13:15:35;15.20;74.90
67529;DHT22;54366;51.980;5.856;2023-11-19T13:18:02;15.20;74.30
67529;DHT22;54366;51.980;5.856;2023-11-19T13:20:29;15.20;74.80
67529;DHT22;54366;51.980;5.856;2023-11-19T13:23:00;15.10;75.10
67529;DHT22;54366;51.980;5.856;2023-11-19T13:25:27;15.00;75.50
67529;DHT22;54366;51.980;5.856;2023-11-19T13:27:54;15.00;75.70
67529;DHT22;54366;51.980;5.856;2023-11-19T13:30:22;14.90;76.20
67529;DHT22;54366;51.980;5.856;2023-11-19T13:32:49;14.90;76.10
67529;DHT22;54366;51.980;5.856;2023-11-19T13:35:16;14.80;75.70
67529;DHT22;54366;51.980;5.856;2023-11-19T13:37:43;14.80;75.80
67529;DHT22;54366;51.980;5.856;2023-11-19T13:40:10;14.80;76.10
67529;DHT22;54366;51.980;5.856;2023-11-19T13:42:42;14.80;76.70
67529;DHT22;54366;51.980;5.856;2023-11-19T13:45:12;14.80;76.40
67529;DHT22;54366;51.980;5.856;2023-11-19T13:47:43;14.80;76.50
67529;DHT22;54366;51.980;5.856;2023-11-19T13:50:10;14.80;76.10
67529;DHT22;54366;51.980;5.856;2023-11-19T13:52:38;14.70;76.50
67529;DHT22;54366;51.980;5.856;2023-11-19T13:55:06;14.70;76.70
67529;DHT22;54366;51.980;5.856;2023-11-19T13:57:33;14.70;76.70
67529;DHT22;54366;51.980;5.856;2023-11-19T14:00:03;14.60;76.90
67529;DHT22;54366;51.980;5.856;2023-11-19T14:02:37;14.60;77.50
67529;DHT22;54366;51.980;5.856;2023-11-19T14:05:04;14.60;77.90
67529;DHT22;54366;51.980;5.856;2023-11-19T14:07:31;14.50;78.20
67529;DHT22;54366;51.980;5.856;2023-11-19T14:09:58;14.50;78.50
67529;DHT22;54366;51.980;5.856;2023-11-19T14:12:24;14.50;78.70
67529;DHT22;54366;51.980;5.856;2023-11-19T14:14:50;14.40;78.60
67529;DHT22;54366;51.980;5.856;2023-11-19T14:17:17;14.40;79.00
67529;DHT22;54366;51.980;5.856;2023-11-19T14:19:44;14.40;79.40
67529;DHT22;54366;51.980;5.856;2023-11-19T14:22:11;14.30;79.50
67529;DHT22;54366;51.980;5.856;2023-11-19T14:24:38;14.40;79.70
67529;DHT22;54366;51.980;5.856;2023-11-19T14:27:05;14.40;79.90
67529;DHT22;54366;51.980;5.856;2023-11-19T14:29:32;14.30;79.80
67529;DHT22;54366;51.980;5.856;2023-11-19T14:31:58;14.30;79.80
67529;DHT22;54366;51.980;5.856;2023-11-19T14:34:25;14.30;79.90
67529;DHT22;54366;51.980;5.856;2023-11-19T14:36:52;14.30;79.80
67529;DHT22;54366;51.980;5.856;2023-11-19T14:39:19;14.30;79.50
67529;DHT22;54366;51.980;5.856;2023-11-19T14:41:46;14.30;79.50
67529;DHT22;54366;51.980;5.856;2023-11-19T14:44:12;14.20;79.40
67529;DHT22;54366;51.980;5.856;2023-11-19T14:46:38;14.20;79.40
67529;DHT22;54366;51.980;5.856;2023-11-19T14:49:05;14.20;79.60
67529;DHT22;54366;51.980;5.856;2023-11-19T14:51:31;14.10;79.60
67529;DHT22;54366;51.980;5.856;2023-11-19T14:53:58;14.10;79.80
67529;DHT22;54366;51.980;5.856;2023-11-19T14:56:24;14.10;80.00
67529;DHT22;54366;51.980;5.856;2023-11-19T14:58:50;14.00;80.20
67529;DHT22;54366;51.980;5.856;2023-11-19T15:01:17;14.00;80.20
67529;DHT22;54366;51.980;5.856;2023-11-19T15:03:44;14.00;80.40
67529;DHT22;54366;51.980;5.856;2023-11-19T15:06:11;14.00;80.50
67529;DHT22;54366;51.980;5.856;2023-11-19T15:08:37;13.90;80.70
67529;DHT22;54366;51.980;5.856;2023-11-19T15:11:04;13.90;80.70
67529;DHT22;54366;51.980;5.856;2023-11-19T15:13:32;13.90;80.70
67529;DHT22;54366;51.980;5.856;2023-11-19T15:15:59;13.80;80.60
67529;DHT22;54366;51.980;5.856;2023-11-19T15:18:25;13.90;80.80
67529;DHT22;54366;51.980;5.856;2023-11-19T15:20:52;13.80;80.70
67529;DHT22;54366;51.980;5.856;2023-11-19T15:23:18;13.80;80.70
67529;DHT22;54366;51.980;5.856;2023-11-19T15:25:45;13.80;80.80
67529;DHT22;54366;51.980;5.856;2023-11-19T15:28:11;13.70;80.90
67529;DHT22;54366;51.980;5.856;2023-11-19T15:30:38;13.70;80.90
67529;DHT22;54366;51.980;5.856;2023-11-19T15:33:04;13.70;81.00
67529;DHT22;54366;51.980;5.856;2023-11-19T15:35:30;13.70;80.90
67529;DHT22;54366;51.980;5.856;2023-11-19T15:37:57;13.60;80.80
67529;DHT22;54366;51.980;5.856;2023-11-19T15:40:23;13.70;81.00